Time;durP1;ratioP1;P1;durP2;ratioP2;P2;SDS_P1;SDS_P2;PMS_P1;PMS_P2;Temp;Humidity;BMP_temperature;BMP_pressure;BME280_temperature;BME280_humidity;BME280_pressure;Samples;Min_cycle;Max_cycle;Signal;HPM_P1;HPM_P2
2024/03/13 00:01:07;;;;;;;18.40;8.50;;;;;;;-141.50;100.00;63355.56;5016326;28;20109;-85
2024/03/13 00:03:36;;;;;;;15.00;7.47;;;;;;;-141.50;100.00;63355.56;5001625;28;20069;-84
2024/03/13 00:06:03;;;;;;;16.17;7.90;;;;;;;-141.50;100.00;63355.56;5013827;28;20056;-84
2024/03/13 00:08:32;;;;;;;17.48;7.55;;;;;;;-141.50;100.00;63355.56;5024231;28;20600;-84
2024/03/13 00:10:59;;;;;;;17.50;8.43;;;;;;;-141.50;100.00;63355.56;5027213;28;20053;-84
2024/03/13 00:13:29;;;;;;;18.80;7.75;;;;;;;-141.50;100.00;63355.56;5026986;28;20049;-84
2024/03/13 00:15:57;;;;;;;17.60;7.65;;;;;;;-141.50;100.00;63355.56;5016966;28;20073;-84
2024/03/13 00:18:24;;;;;;;14.93;7.88;;;;;;;-141.50;100.00;63355.56;5030171;28;20053;-83
2024/03/13 00:20:51;;;;;;;15.02;7.60;;;;;;;-141.50;100.00;63355.56;5045646;28;20087;-83
2024/03/13 00:23:18;;;;;;;13.93;7.38;;;;;;;-141.50;100.00;63355.56;5031538;28;20041;-84
2024/03/13 00:25:45;;;;;;;15.00;8.05;;;;;;;-141.50;100.00;63355.56;5010091;28;20058;-83
2024/03/13 00:28:12;;;;;;;19.20;8.52;;;;;;;-141.50;100.00;63355.56;4999583;28;20169;-81
2024/03/13 00:30:40;;;;;;;19.10;8.05;;;;;;;-141.50;100.00;63355.56;4997367;28;20054;-82
2024/03/13 00:33:08;;;;;;;15.55;7.60;;;;;;;-141.50;100.00;63355.56;5028539;28;20360;-82
2024/03/13 00:35:36;;;;;;;15.95;7.60;;;;;;;-141.50;100.00;63355.56;5005625;28;20058;-83
2024/03/13 00:38:03;;;;;;;16.90;8.45;;;;;;;-141.50;100.00;63355.56;5019638;28;20042;-82
2024/03/13 00:40:30;;;;;;;16.50;7.28;;;;;;;-141.50;100.00;63355.56;5019197;28;21052;-83
2024/03/13 00:42:57;;;;;;;16.20;8.25;;;;;;;-141.50;100.00;63355.56;4995130;28;20054;-82
2024/03/13 00:45:25;;;;;;;18.35;7.78;;;;;;;-141.50;100.00;63355.56;5005298;28;20054;-84
2024/03/13 00:47:54;;;;;;;17.40;7.95;;;;;;;-141.50;100.00;63355.56;5005942;28;20050;-81
2024/03/13 00:50:22;;;;;;;20.33;8.82;;;;;;;-141.50;100.00;63355.56;5000313;28;20069;-84
2024/03/13 00:52:50;;;;;;;16.55;8.23;;;;;;;-141.50;100.00;63355.56;4999889;28;20093;-82
2024/03/13 00:55:17;;;;;;;18.38;8.65;;;;;;;-141.50;100.00;63355.56;5012825;28;20046;-81
2024/03/13 00:57:46;;;;;;;15.20;7.78;;;;;;;-141.50;100.00;63355.56;5004896;28;20050;-83
2024/03/13 01:00:18;;;;;;;13.43;7.65;;;;;;;-141.50;100.00;63355.56;5007232;28;20114;-83
2024/03/13 01:02:45;;;;;;;16.70;7.97;;;;;;;-141.50;100.00;63355.56;5006332;28;20058;-83
2024/03/13 01:05:13;;;;;;;16.77;7.70;;;;;;;-141.50;100.00;63355.56;5008620;28;20061;-83
2024/03/13 01:07:40;;;;;;;15.43;7.65;;;;;;;-141.50;100.00;63355.56;4994262;28;20059;-83
2024/03/13 01:10:08;;;;;;;16.85;8.18;;;;;;;-141.50;100.00;63355.56;5019528;28;20045;-82
2024/03/13 01:12:35;;;;;;;16.65;7.90;;;;;;;-141.50;100.00;63355.56;5018290;28;20062;-81
2024/03/13 01:15:02;;;;;;;17.90;8.27;;;;;;;-141.50;100.00;63355.56;5003287;28;20393;-85
2024/03/13 01:17:29;;;;;;;18.63;8.02;;;;;;;-141.50;100.00;63355.56;4999203;28;20524;-83
2024/03/13 01:19:57;;;;;;;17.10;7.95;;;;;;;-141.50;100.00;63355.56;5015797;28;20050;-83
2024/03/13 01:22:24;;;;;;;16.75;7.70;;;;;;;-141.50;100.00;63355.56;5022274;28;20144;-81
2024/03/13 01:24:51;;;;;;;15.15;7.65;;;;;;;-141.50;100.00;63355.56;5019561;28;20054;-83
2024/03/13 01:27:20;;;;;;;15.73;7.57;;;;;;;-141.50;100.00;63355.56;5026211;28;20132;-83
2024/03/13 01:29:50;;;;;;;16.52;7.82;;;;;;;-141.50;100.00;63355.56;5022030;28;20054;-81
2024/03/13 01:32:18;;;;;;;17.40;7.53;;;;;;;-141.50;100.00;63355.56;5028259;28;20054;-82
2024/03/13 01:34:46;;;;;;;15.07;7.35;;;;;;;-141.50;100.00;63355.56;5013719;28;20046;-80
2024/03/13 01:40:03;;;;;;;15.52;7.43;;;;;;;-141.50;100.00;63355.56;4990172;28;20050;-81
2024/03/13 01:57:02;;;;;;;18.55;7.95;;;;;;;-141.50;100.00;63355.56;5013918;28;20074;-83
2024/03/13 01:59:48;;;;;;;17.23;7.72;;;;;;;-141.50;100.00;63355.56;5000641;28;20046;-84
2024/03/13 02:02:24;;;;;;;23.25;8.07;;;;;;;-141.50;100.00;63355.56;5010355;28;20077;-83
2024/03/13 02:04:52;;;;;;;17.63;8.85;;;;;;;-141.50;100.00;63355.56;5011564;28;20119;-84
2024/03/13 02:07:23;;;;;;;21.75;9.38;;;;;;;-141.50;100.00;63355.56;5017761;28;20058;-84
2024/03/13 02:09:54;;;;;;;19.15;8.93;;;;;;;-141.50;100.00;63355.56;5013381;28;20050;-83
2024/03/13 02:12:21;;;;;;;20.35;8.52;;;;;;;-141.50;100.00;63355.56;4998634;28;20431;-83
2024/03/13 02:14:49;;;;;;;22.70;10.02;;;;;;;-141.50;100.00;63355.56;5006438;28;20050;-84
2024/03/13 02:17:16;;;;;;;22.77;10.48;;;;;;;-141.50;100.00;63355.56;4998979;28;20070;-82
2024/03/13 02:19:44;;;;;;;26.60;10.70;;;;;;;-141.50;100.00;63355.56;4995969;28;20049;-83
2024/03/13 02:22:13;;;;;;;23.35;10.55;;;;;;;-141.50;100.00;63355.56;5008657;28;20073;-82
2024/03/13 02:24:40;;;;;;;22.05;9.90;;;;;;;-141.50;100.00;63355.56;5002124;28;20050;-84
2024/03/13 02:27:10;;;;;;;25.65;10.98;;;;;;;-141.50;100.00;63355.56;5016384;28;20085;-82
2024/03/13 02:29:41;;;;;;;26.92;11.02;;;;;;;-141.50;100.00;63355.56;5025594;28;20057;-83
2024/03/13 02:32:09;;;;;;;25.83;11.13;;;;;;;-141.50;100.00;63355.56;5034496;28;20050;-83
2024/03/13 02:34:41;;;;;;;25.77;10.20;;;;;;;-141.50;100.00;63355.56;5009373;28;20050;-83
2024/03/13 02:37:08;;;;;;;24.15;11.10;;;;;;;-141.50;100.00;63355.56;5020391;28;20053;-84
2024/03/13 02:39:36;;;;;;;24.85;10.52;;;;;;;-141.50;100.00;63355.56;5009043;28;20057;-81
2024/03/13 02:42:03;;;;;;;26.05;10.82;;;;;;;-141.50;100.00;63355.56;5003490;28;20052;-81
2024/03/13 02:44:30;;;;;;;28.10;11.40;;;;;;;-141.50;100.00;63355.56;5019928;28;20049;-83
2024/03/13 02:46:57;;;;;;;24.27;10.73;;;;;;;-141.50;100.00;63355.56;5016514;28;20054;-82
2024/03/13 02:49:23;;;;;;;26.67;11.38;;;;;;;-141.50;100.00;63355.56;4994064;28;20492;-83
2024/03/13 02:51:50;;;;;;;25.65;11.02;;;;;;;-141.50;100.00;63355.56;4994101;28;20077;-81
2024/03/13 02:54:17;;;;;;;24.77;10.63;;;;;;;-141.50;100.00;63355.56;4997815;28;20066;-81
2024/03/13 02:56:46;;;;;;;25.77;10.57;;;;;;;-141.50;100.00;63355.56;5000803;28;20057;-83
2024/03/13 02:59:13;;;;;;;26.15;10.02;;;;;;;-141.50;100.00;63355.56;4998120;28;20058;-81
2024/03/13 03:01:40;;;;;;;25.73;9.98;;;;;;;-141.50;100.00;63355.56;5008835;28;20084;-83
2024/03/13 03:04:08;;;;;;;23.58;10.15;;;;;;;-141.50;100.00;63355.56;4998305;28;20070;-81
2024/03/13 03:06:35;;;;;;;25.58;11.10;;;;;;;-141.50;100.00;63355.56;5011116;28;20122;-82
2024/03/13 03:09:05;;;;;;;27.85;10.57;;;;;;;-141.50;100.00;63355.56;5011722;28;20439;-82
2024/03/13 03:11:32;;;;;;;22.58;10.13;;;;;;;-141.50;100.00;63355.56;5008476;28;20574;-83
2024/03/13 03:13:59;;;;;;;21.67;9.93;;;;;;;-141.50;100.00;63355.56;5032038;28;20465;-82
2024/03/13 03:16:25;;;;;;;23.90;10.32;;;;;;;-141.50;100.00;63355.56;5031995;28;20096;-82
2024/03/13 03:18:53;;;;;;;30.75;11.15;;;;;;;-141.50;100.00;63355.56;5029919;28;20058;-81
2024/03/13 03:21:22;;;;;;;25.80;11.00;;;;;;;-141.50;100.00;63355.56;4997097;28;20038;-82
2024/03/13 03:23:49;;;;;;;26.42;10.77;;;;;;;-141.50;100.00;63355.56;5000438;28;20485;-81
2024/03/13 03:26:21;;;;;;;30.83;11.80;;;;;;;-141.50;100.00;63355.56;5010174;28;20072;-83
2024/03/13 03:28:48;;;;;;;33.58;12.88;;;;;;;-141.50;100.00;63355.56;5002862;28;20057;-84
2024/03/13 03:31:15;;;;;;;24.63;10.80;;;;;;;-141.50;100.00;63355.56;5022677;28;20322;-81
2024/03/13 03:33:42;;;;;;;27.45;11.63;;;;;;;-141.50;100.00;63355.56;5031427;28;20053;-81
2024/03/13 03:36:09;;;;;;;33.45;12.35;;;;;;;-141.50;100.00;63355.56;5021317;28;20046;-82
2024/03/13 03:38:35;;;;;;;30.20;11.45;;;;;;;-141.50;100.00;63355.56;5013384;28;20266;-82
2024/03/13 03:41:02;;;;;;;26.33;11.45;;;;;;;-141.50;100.00;63355.56;5026435;28;20045;-83
2024/03/13 03:43:29;;;;;;;32.78;11.68;;;;;;;-141.50;100.00;63355.56;5017892;28;20294;-83
2024/03/13 03:45:57;;;;;;;27.60;11.23;;;;;;;-141.50;100.00;63355.56;5005218;28;20059;-83
2024/03/13 03:48:24;;;;;;;30.35;11.88;;;;;;;-141.50;100.00;63355.56;5001428;28;20328;-82
2024/03/13 03:50:51;;;;;;;30.40;11.80;;;;;;;-141.50;100.00;63355.56;5001971;28;20100;-79
2024/03/13 03:53:18;;;;;;;27.85;11.32;;;;;;;-141.50;100.00;63355.56;5007887;28;20411;-83
2024/03/13 03:55:45;;;;;;;33.92;12.60;;;;;;;-141.50;100.00;63355.56;5009391;28;20061;-81
2024/03/13 03:58:12;;;;;;;33.25;12.77;;;;;;;-141.50;100.00;63355.56;4995336;28;20050;-81
2024/03/13 04:00:39;;;;;;;34.65;12.43;;;;;;;-141.50;100.00;63355.56;4992306;28;20054;-80
2024/03/13 04:03:06;;;;;;;32.00;12.68;;;;;;;-141.50;100.00;63355.56;5023646;28;20081;-82
2024/03/13 04:05:32;;;;;;;29.27;11.93;;;;;;;-141.50;100.00;63355.56;5016653;28;20044;-84
2024/03/13 04:08:02;;;;;;;33.42;12.18;;;;;;;-141.50;100.00;63355.56;5013694;28;20058;-83
2024/03/13 04:10:29;;;;;;;32.40;12.45;;;;;;;-141.50;100.00;63355.56;5013481;28;20526;-82
2024/03/13 04:12:59;;;;;;;31.52;11.98;;;;;;;-141.50;100.00;63355.56;5006668;28;20523;-81
2024/03/13 04:15:26;;;;;;;32.10;11.98;;;;;;;-141.50;100.00;63355.56;5008857;28;20275;-80
2024/03/13 04:17:53;;;;;;;29.73;11.85;;;;;;;-141.50;100.00;63355.56;5005519;28;20062;-80
2024/03/13 04:20:21;;;;;;;29.83;12.32;;;;;;;-141.50;100.00;63355.56;5006285;28;20062;-82
2024/03/13 04:22:50;;;;;;;37.20;12.60;;;;;;;-141.50;100.00;63355.56;5022877;28;20472;-82
2024/03/13 04:25:18;;;;;;;34.22;12.80;;;;;;;-141.50;100.00;63355.56;5005203;28;20062;-82
2024/03/13 04:27:46;;;;;;;37.83;12.38;;;;;;;-141.50;100.00;63355.56;5015684;28;20088;-83
2024/03/13 04:30:14;;;;;;;32.28;12.40;;;;;;;-141.50;100.00;63355.56;5007229;28;20058;-82
2024/03/13 04:32:41;;;;;;;33.03;12.20;;;;;;;-141.50;100.00;63355.56;5016890;28;20053;-83
2024/03/13 04:35:07;;;;;;;31.92;12.32;;;;;;;-141.50;100.00;63355.56;5029746;28;20065;-84
2024/03/13 04:37:34;;;;;;;29.73;11.45;;;;;;;-141.50;100.00;63355.56;5013008;28;20104;-83
2024/03/13 04:40:03;;;;;;;29.50;12.35;;;;;;;-141.50;100.00;63355.56;5006269;28;20049;-85
2024/03/13 04:42:30;;;;;;;30.10;11.48;;;;;;;-141.50;100.00;63355.56;5006055;28;20082;-84
2024/03/13 04:44:59;;;;;;;36.20;13.27;;;;;;;-141.50;100.00;63355.56;5019643;28;20070;-84
2024/03/13 04:47:26;;;;;;;30.08;11.88;;;;;;;-141.50;100.00;63355.56;5030638;28;20053;-83
2024/03/13 04:49:53;;;;;;;29.48;11.50;;;;;;;-141.50;100.00;63355.56;5035649;28;20064;-85
2024/03/13 04:52:21;;;;;;;35.22;12.73;;;;;;;-141.50;100.00;63355.56;5038292;28;20072;-84
2024/03/13 04:54:48;;;;;;;32.85;12.02;;;;;;;-141.50;100.00;63355.56;5053469;28;20060;-84
2024/03/13 04:57:15;;;;;;;31.58;11.75;;;;;;;-141.50;100.00;63355.56;5061516;28;20068;-83
2024/03/13 04:59:42;;;;;;;29.20;11.82;;;;;;;-141.50;100.00;63355.56;5038397;28;20133;-82
2024/03/13 05:02:09;;;;;;;29.30;12.23;;;;;;;-141.50;100.00;63355.56;5032927;28;20062;-84
2024/03/13 05:04:36;;;;;;;32.40;12.48;;;;;;;-141.50;100.00;63355.56;5012414;28;20053;-85
2024/03/13 05:07:02;;;;;;;32.50;12.07;;;;;;;-141.50;100.00;63355.56;5045770;28;20040;-85
2024/03/13 05:09:29;;;;;;;30.95;11.90;;;;;;;-141.50;100.00;63355.56;5032032;28;20053;-85
2024/03/13 05:11:56;;;;;;;30.73;11.70;;;;;;;-141.50;100.00;63355.56;5045326;28;20048;-85
2024/03/13 05:14:23;;;;;;;29.70;11.80;;;;;;;-141.50;100.00;63355.56;5043247;28;20092;-83
2024/03/13 05:16:50;;;;;;;33.60;12.05;;;;;;;-141.50;100.00;63355.56;5047268;28;20059;-84
2024/03/13 05:19:18;;;;;;;32.92;12.32;;;;;;;-141.50;100.00;63355.56;5041053;28;20060;-83
2024/03/13 05:21:45;;;;;;;31.65;12.65;;;;;;;-141.50;100.00;63355.56;5046339;28;20049;-83
2024/03/13 05:24:15;;;;;;;31.25;11.52;;;;;;;-141.50;100.00;63355.56;5035772;28;20067;-84
2024/03/13 05:26:42;;;;;;;27.67;10.80;;;;;;;-141.50;100.00;63355.56;5025813;28;20058;-84
2024/03/13 05:29:09;;;;;;;27.27;10.65;;;;;;;-141.50;100.00;63355.56;5035398;28;20137;-85
2024/03/13 05:31:36;;;;;;;28.08;10.85;;;;;;;-141.50;100.00;63355.56;5019492;28;20085;-82
2024/03/13 05:34:04;;;;;;;31.50;11.32;;;;;;;-141.50;100.00;63355.56;5033101;28;20407;-82
2024/03/13 05:36:32;;;;;;;21.92;9.73;;;;;;;-141.50;100.00;63355.56;5031091;28;20107;-83
2024/03/13 05:38:59;;;;;;;27.15;10.27;;;;;;;-141.50;100.00;63355.56;5037135;28;20228;-83
2024/03/13 05:41:26;;;;;;;24.45;9.95;;;;;;;-141.50;100.00;63355.56;5035178;28;20063;-86
2024/03/13 05:43:53;;;;;;;29.00;10.52;;;;;;;-141.50;100.00;63355.56;5039381;28;20068;-83
2024/03/13 05:46:19;;;;;;;27.08;10.32;;;;;;;-141.50;100.00;63355.56;5018934;28;20058;-84
2024/03/13 05:48:46;;;;;;;23.38;9.45;;;;;;;-141.50;100.00;63355.56;5032312;28;20068;-84
2024/03/13 05:51:13;;;;;;;24.88;10.43;;;;;;;-141.50;100.00;63355.56;4996585;28;20058;-85
2024/03/13 05:53:40;;;;;;;28.42;10.38;;;;;;;-141.50;100.00;63355.56;5015860;28;20102;-86
2024/03/13 05:56:07;;;;;;;24.42;9.52;;;;;;;-141.50;100.00;63355.56;5016899;28;20600;-84
2024/03/13 05:58:34;;;;;;;24.27;9.52;;;;;;;-141.50;100.00;63355.56;5013572;28;20065;-84
2024/03/13 06:01:03;;;;;;;24.63;9.70;;;;;;;-141.50;100.00;63355.56;5000821;28;20112;-85
2024/03/13 06:03:30;;;;;;;28.73;10.30;;;;;;;-141.50;100.00;63355.56;5008333;28;20073;-83
2024/03/13 06:05:57;;;;;;;24.95;8.68;;;;;;;-141.50;100.00;63355.56;5001882;28;20062;-84
2024/03/13 06:08:24;;;;;;;21.38;9.05;;;;;;;-141.50;100.00;63355.56;5000676;28;20522;-83
2024/03/13 06:10:50;;;;;;;27.48;10.23;;;;;;;-141.50;100.00;63355.56;5003148;28;20064;-81
2024/03/13 06:13:17;;;;;;;22.65;9.13;;;;;;;-141.50;100.00;63355.56;5012674;28;20077;-83
2024/03/13 06:15:44;;;;;;;25.92;9.68;;;;;;;-141.50;100.00;63355.56;5008967;28;20056;-85
2024/03/13 06:18:13;;;;;;;26.77;9.88;;;;;;;-141.50;100.00;63355.56;5035388;28;20057;-86
2024/03/13 06:20:39;;;;;;;24.08;9.82;;;;;;;-141.50;100.00;63355.56;5021260;28;20052;-83
2024/03/13 06:23:06;;;;;;;28.35;10.77;;;;;;;-141.50;100.00;63355.56;5008126;28;20069;-84
2024/03/13 06:25:39;;;;;;;23.92;10.07;;;;;;;-141.50;100.00;63355.56;5017361;28;20053;-88
2024/03/13 06:30:51;;;;;;;27.08;10.38;;;;;;;-141.50;100.00;63355.56;5014213;28;20058;-86
2024/03/13 06:33:18;;;;;;;27.35;10.40;;;;;;;-141.50;100.00;63355.56;5008390;28;20065;-83
2024/03/13 06:35:45;;;;;;;24.75;10.70;;;;;;;-141.50;100.00;63355.56;5024438;28;20088;-84
2024/03/13 06:38:12;;;;;;;28.20;10.77;;;;;;;-141.50;100.00;63355.56;5020766;28;20117;-85
2024/03/13 06:40:42;;;;;;;24.27;9.95;;;;;;;-141.50;100.00;63355.56;5022845;28;20184;-85
2024/03/13 06:43:09;;;;;;;27.90;11.02;;;;;;;-141.50;100.00;63355.56;5019587;28;20077;-86
2024/03/13 06:45:36;;;;;;;27.75;10.35;;;;;;;-141.50;100.00;63355.56;5022005;28;20519;-87
2024/03/13 06:48:06;;;;;;;26.90;10.60;;;;;;;-141.50;100.00;63355.56;5025113;28;20050;-84
2024/03/13 06:50:33;;;;;;;28.40;11.30;;;;;;;-141.50;100.00;63355.56;5029918;28;20231;-84
2024/03/13 06:53:02;;;;;;;28.85;11.48;;;;;;;-141.50;100.00;63355.56;5024804;28;20077;-84
2024/03/13 06:55:29;;;;;;;31.67;11.85;;;;;;;-141.50;100.00;63355.56;5036634;28;20106;-84
2024/03/13 06:57:58;;;;;;;29.50;12.40;;;;;;;-141.50;100.00;63355.56;5029377;28;20059;-82
2024/03/13 07:00:27;;;;;;;29.75;11.27;;;;;;;-141.50;100.00;63355.56;5017578;28;20052;-86
2024/03/13 07:02:59;;;;;;;33.28;12.98;;;;;;;-141.50;100.00;63355.56;5024462;28;20147;-85
2024/03/13 07:05:26;;;;;;;32.92;12.55;;;;;;;-141.50;100.00;63355.56;5016686;28;20037;-83
2024/03/13 07:07:54;;;;;;;30.73;11.25;;;;;;;-141.50;100.00;63355.56;5020866;28;20124;-81
2024/03/13 07:10:21;;;;;;;32.67;11.45;;;;;;;-141.50;100.00;63355.56;5022523;28;20065;-83
2024/03/13 07:12:48;;;;;;;33.00;11.25;;;;;;;-141.50;100.00;63355.56;5028625;28;20050;-81
2024/03/13 07:15:15;;;;;;;28.13;11.15;;;;;;;-141.50;100.00;63355.56;5032229;28;20057;-83
2024/03/13 07:17:43;;;;;;;28.27;10.98;;;;;;;-141.50;100.00;63355.56;5029956;28;20135;-84
2024/03/13 07:20:10;;;;;;;28.58;11.00;;;;;;;-141.50;100.00;63355.56;5029192;28;20137;-83
2024/03/13 07:22:38;;;;;;;30.05;10.70;;;;;;;-141.50;100.00;63355.56;5028263;28;20053;-82
2024/03/13 07:25:09;;;;;;;27.20;10.90;;;;;;;-141.50;100.00;63355.56;5015527;28;20046;-83
2024/03/13 07:27:36;;;;;;;23.65;9.50;;;;;;;-141.50;100.00;63355.56;5013859;28;20054;-84
2024/03/13 07:30:05;;;;;;;21.60;8.75;;;;;;;-141.50;100.00;63355.56;5009407;28;20442;-85
2024/03/13 07:32:32;;;;;;;26.83;9.65;;;;;;;-141.50;100.00;63355.56;5030016;28;20198;-85
2024/03/13 07:34:58;;;;;;;25.30;10.20;;;;;;;-141.50;100.00;63355.56;5008278;28;20046;-81
2024/03/13 07:37:25;;;;;;;23.88;8.80;;;;;;;-141.50;100.00;63355.56;5016496;28;20061;-82
2024/03/13 07:39:58;;;;;;;27.40;10.05;;;;;;;-141.50;100.00;63355.56;5028370;28;20582;-83
2024/03/13 07:42:25;;;;;;;27.80;9.90;;;;;;;-141.50;100.00;63355.56;5019202;28;20074;-82
2024/03/13 07:44:54;;;;;;;22.88;9.50;;;;;;;-141.50;100.00;63355.56;5026443;28;20064;-81
2024/03/13 07:47:21;;;;;;;22.25;8.93;;;;;;;-141.50;100.00;63355.56;5024228;28;20708;-84
2024/03/13 07:49:49;;;;;;;23.95;9.63;;;;;;;-141.50;100.00;63355.56;5017449;28;20080;-81
2024/03/13 07:52:17;;;;;;;26.58;10.32;;;;;;;-141.50;100.00;63355.56;5011417;28;20539;-81
2024/03/13 07:54:44;;;;;;;29.15;10.73;;;;;;;-141.50;100.00;63355.56;5015006;28;20051;-80
2024/03/13 07:57:13;;;;;;;27.10;10.60;;;;;;;-141.50;100.00;63355.56;5017871;28;20049;-82
2024/03/13 07:59:40;;;;;;;27.80;10.80;;;;;;;-141.50;100.00;63355.56;5028295;28;20038;-84
2024/03/13 08:02:08;;;;;;;29.83;10.50;;;;;;;-141.50;100.00;63355.56;5034279;28;20045;-83
2024/03/13 08:04:36;;;;;;;28.85;10.93;;;;;;;-141.50;100.00;63355.56;5024908;28;20102;-83
2024/03/13 08:07:04;;;;;;;30.42;12.77;;;;;;;-141.50;100.00;63355.56;5030279;28;20526;-83
2024/03/13 08:09:48;;;;;;;30.55;11.55;;;;;;;-141.50;100.00;63355.56;5046520;28;20050;-83
2024/03/13 08:12:34;;;;;;;37.95;13.65;;;;;;;-141.50;100.00;63355.56;4994036;28;20057;-83
2024/03/13 08:15:18;;;;;;;31.08;12.38;;;;;;;-141.50;100.00;63355.56;5013369;28;20530;-81
2024/03/13 08:18:02;;;;;;;34.60;13.90;;;;;;;-141.50;100.00;63355.56;5017877;28;20038;-83
2024/03/13 08:20:48;;;;;;;38.67;13.00;;;;;;;-141.50;100.00;63355.56;5022619;28;20045;-85
2024/03/13 08:23:32;;;;;;;;;;;;;;;-141.50;100.00;63355.56;5011480;28;20046;-84
2024/03/13 08:26:16;;;;;;;36.95;13.25;;;;;;;-141.50;100.00;63355.56;4996275;28;19924;-81
2024/03/13 08:29:01;;;;;;;31.23;12.20;;;;;;;-141.50;100.00;63355.56;5001882;28;20065;-84
2024/03/13 08:31:50;;;;;;;35.27;13.50;;;;;;;-141.50;100.00;63355.56;5004221;28;20034;-84
2024/03/13 08:34:34;;;;;;;36.08;13.85;;;;;;;-141.50;100.00;63355.56;5006159;28;20046;-83
2024/03/13 08:37:19;;;;;;;36.42;13.43;;;;;;;-141.50;100.00;63355.56;4998114;28;20110;-82
2024/03/13 08:40:06;;;;;;;30.63;12.80;;;;;;;-141.50;100.00;63355.56;5007062;28;20508;-84
2024/03/13 08:42:51;;;;;;;36.00;12.95;;;;;;;-141.50;100.00;63355.56;5016711;28;20057;-83
2024/03/13 08:45:35;;;;;;;35.10;12.65;;;;;;;-141.50;100.00;63355.56;5024913;28;20065;-82
2024/03/13 08:48:20;;;;;;;35.90;13.10;;;;;;;-141.50;100.00;63355.56;5021131;28;20046;-81
2024/03/13 08:51:09;;;;;;;38.10;14.20;;;;;;;-141.50;100.00;63355.56;5015188;28;20048;-75
2024/03/13 08:53:53;;;;;;;30.98;12.43;;;;;;;-141.50;100.00;63355.56;5039219;28;20042;-76
2024/03/13 08:56:39;;;;;;;32.53;13.07;;;;;;;-141.50;100.00;63355.56;5015725;28;20046;-77
2024/03/13 08:59:23;;;;;;;33.78;13.77;;;;;;;-141.50;100.00;63355.56;5021899;28;20053;-78
2024/03/13 09:02:08;;;;;;;32.42;13.40;;;;;;;-141.50;100.00;63355.56;4996349;28;20054;-77
2024/03/13 09:04:54;;;;;;;35.17;12.73;;;;;;;-141.50;100.00;63355.56;5009676;28;20058;-76
2024/03/13 09:07:40;;;;;;;31.70;12.70;;;;;;;-141.50;100.00;63355.56;5004592;28;20054;-77
2024/03/13 09:10:07;;;;;;;25.88;10.38;;;;;;;-141.50;100.00;63355.56;4989580;28;20452;-78
2024/03/13 09:12:34;;;;;;;21.92;9.65;;;;;;;-141.50;100.00;63355.56;4996396;28;20050;-82
2024/03/13 09:15:01;;;;;;;24.90;9.38;;;;;;;-141.50;100.00;63355.56;5003401;28;20500;-82
2024/03/13 09:17:28;;;;;;;23.63;9.73;;;;;;;-141.50;100.00;63355.56;5001091;28;20504;-83
2024/03/13 09:19:55;;;;;;;21.92;8.98;;;;;;;-141.50;100.00;63355.56;4998291;28;20061;-80
2024/03/13 09:22:22;;;;;;;24.15;9.73;;;;;;;-141.50;100.00;63355.56;4994604;28;20127;-81
2024/03/13 09:24:50;;;;;;;20.85;8.68;;;;;;;-141.50;100.00;63355.56;5008091;28;20144;-80
2024/03/13 09:27:18;;;;;;;19.08;7.60;;;;;;;-141.50;100.00;63355.56;5009052;28;20665;-82
2024/03/13 09:29:45;;;;;;;20.70;8.15;;;;;;;-141.50;100.00;63355.56;5004624;28;20053;-82
2024/03/13 09:32:12;;;;;;;20.67;8.27;;;;;;;-141.50;100.00;63355.56;5000566;28;20141;-83
2024/03/13 09:34:38;;;;;;;20.20;8.77;;;;;;;-141.50;100.00;63355.56;4996419;28;20072;-81
2024/03/13 09:37:07;;;;;;;18.92;8.10;;;;;;;-141.50;100.00;63355.56;4989885;28;20054;-81
2024/03/13 09:39:36;;;;;;;18.00;8.40;;;;;;;-141.50;100.00;63355.56;5008711;28;20069;-84
2024/03/13 09:42:16;;;;;;;20.83;8.65;;;;;;;-141.50;100.00;63355.56;5000277;28;20050;-80
2024/03/13 09:44:46;;;;;;;17.75;7.80;;;;;;;-141.50;100.00;63355.56;4994940;28;20061;-82
2024/03/13 09:47:13;;;;;;;19.90;8.90;;;;;;;-141.50;100.00;63355.56;5015629;28;20061;-85
2024/03/13 09:49:44;;;;;;;21.77;8.55;;;;;;;-141.50;100.00;63355.56;5012355;28;20077;-81
2024/03/13 09:52:12;;;;;;;16.77;7.38;;;;;;;-141.50;100.00;63355.56;4994048;28;20065;-81
2024/03/13 09:54:43;;;;;;;16.20;7.50;;;;;;;-141.50;100.00;63355.56;5003873;28;20057;-80
2024/03/13 09:57:11;;;;;;;15.95;6.88;;;;;;;-141.50;100.00;63355.56;5002958;28;20061;-80
2024/03/13 09:59:43;;;;;;;15.45;6.30;;;;;;;-141.50;100.00;63355.56;5011701;28;20487;-79
2024/03/13 10:02:18;;;;;;;15.15;6.25;;;;;;;-141.50;100.00;63355.56;5026394;28;20122;-83
2024/03/13 10:04:48;;;;;;;14.25;7.15;;;;;;;-141.50;100.00;63355.56;5003104;28;20495;-82
2024/03/13 10:07:19;;;;;;;15.40;6.68;;;;;;;-141.50;100.00;63355.56;5007909;28;20061;-81
2024/03/13 10:09:47;;;;;;;17.08;6.82;;;;;;;-141.50;100.00;63355.56;5006477;28;20054;-82
2024/03/13 10:12:20;;;;;;;13.48;6.20;;;;;;;-141.50;100.00;63355.56;5016158;28;20054;-82
2024/03/13 10:14:52;;;;;;;14.00;6.63;;;;;;;-141.50;100.00;63355.56;5001042;28;20353;-79
2024/03/13 10:17:27;;;;;;;14.75;6.28;;;;;;;-141.50;100.00;63355.56;5022646;28;20077;-80
2024/03/13 10:19:55;;;;;;;14.25;6.75;;;;;;;-141.50;100.00;63355.56;4994447;28;20069;-80
2024/03/13 10:22:23;;;;;;;15.98;7.03;;;;;;;-141.50;100.00;63355.56;5034373;28;20056;-81
2024/03/13 10:24:51;;;;;;;14.45;7.22;;;;;;;-141.50;100.00;63355.56;5011343;28;20064;-81
2024/03/13 10:27:20;;;;;;;15.02;6.97;;;;;;;-141.50;100.00;63355.56;5000127;28;20058;-83
2024/03/13 10:29:52;;;;;;;14.15;6.68;;;;;;;-141.50;100.00;63355.56;5000383;28;20054;-81
2024/03/13 10:32:20;;;;;;;16.00;7.22;;;;;;;-141.50;100.00;63355.56;5023316;28;20058;-84
2024/03/13 10:34:49;;;;;;;13.77;6.30;;;;;;;-141.50;100.00;63355.56;5020339;28;20069;-84
2024/03/13 10:37:17;;;;;;;15.80;6.20;;;;;;;-141.50;100.00;63355.56;5035133;28;20044;-85
2024/03/13 10:39:44;;;;;;;12.82;6.18;;;;;;;-141.50;100.00;63355.56;5047211;28;20083;-83
2024/03/13 10:42:11;;;;;;;12.05;5.32;;;;;;;-141.50;100.00;63355.56;5038725;28;20061;-81
2024/03/13 10:44:38;;;;;;;11.82;5.07;;;;;;;-141.50;100.00;63355.56;5023736;28;20054;-82
2024/03/13 10:47:07;;;;;;;11.20;5.50;;;;;;;-141.50;100.00;63355.56;5033594;28;20071;-82
2024/03/13 10:49:34;;;;;;;12.02;5.47;;;;;;;-141.50;100.00;63355.56;5029198;28;20065;-79
2024/03/13 10:52:09;;;;;;;10.35;5.03;;;;;;;-141.50;100.00;63355.56;5032946;28;20106;-82
2024/03/13 10:54:36;;;;;;;12.68;5.72;;;;;;;-141.50;100.00;63355.56;5033478;28;20176;-83
2024/03/13 10:57:04;;;;;;;11.18;5.30;;;;;;;-141.50;100.00;63355.56;5037369;28;20045;-80
2024/03/13 10:59:32;;;;;;;11.23;5.43;;;;;;;-141.50;100.00;63355.56;5035459;28;20569;-82
2024/03/13 11:02:00;;;;;;;12.48;5.20;;;;;;;-141.50;100.00;63355.56;5032333;28;20049;-81
2024/03/13 11:04:27;;;;;;;10.63;4.97;;;;;;;-141.50;100.00;63355.56;5040201;28;20061;-82
2024/03/13 11:06:54;;;;;;;12.10;5.90;;;;;;;-141.50;100.00;63355.56;5031684;28;20057;-79
2024/03/13 11:09:21;;;;;;;13.82;5.72;;;;;;;-141.50;100.00;63355.56;5020536;28;20058;-81
2024/03/13 11:11:51;;;;;;;13.90;5.47;;;;;;;-141.50;100.00;63355.56;5034923;28;20053;-83
2024/03/13 11:14:20;;;;;;;11.52;5.18;;;;;;;-141.50;100.00;63355.56;4996515;28;20050;-80
2024/03/13 11:16:51;;;;;;;14.52;5.65;;;;;;;-141.50;100.00;63355.56;5022549;28;20077;-79
2024/03/13 11:19:20;;;;;;;10.70;4.82;;;;;;;-141.50;100.00;63355.56;5029589;28;20065;-80
2024/03/13 11:21:57;;;;;;;12.73;5.53;;;;;;;-141.50;100.00;63355.56;5030815;28;20041;-82
2024/03/13 11:24:31;;;;;;;9.90;4.38;;;;;;;-141.50;100.00;63355.56;5027164;28;20076;-81
2024/03/13 11:27:07;;;;;;;13.35;5.10;;;;;;;-141.50;100.00;63355.56;5027163;28;20095;-81